Meath Environmental Platform

Observations for Trim Market St

Time AQI Temp °C Hum % Pres Pa CO μg/m³ H₂S μg/m³ NO μg/m³ NO₂ μg/m³ O₃ μg/m³ SO₂ μg/m³ PM1 μg/m³ PM2.5 μg/m³ PM10 μg/m³
Thursday 27 August 2026
06:02 2 17.7 85 2,147,483,647 0.32 0 2.19 2.51 61.18 0 19.24 20.51 31.29
06:01 2 17.7 85 2,147,483,647 0.32 0 2.17 2.77 59.99 0 17.81 19.58 31.29
06:00 2 17.7 85 2,147,483,647 0.32 0 2.21 4.16 59.52 0 19.24 20.5 31.81
05:59 2 17.7 85 2,147,483,647 0.31 0 2.21 1.29 47.15 0 15.68 18.64 28.57
05:56 2 17.7 85 2,147,483,647 0.4 0 2.17 2.96 56.64 0 19.24 20.5 31.27
05:55 2 17.7 85 2,147,483,647 0.33 0 2.19 2.32 59.68 0 16.39 17.24 26.93
05:54 2 17.7 85 2,147,483,647 0.33 0 2.19 2.32 56.22 0 17.1 19.56 31.24
05:53 2 17.7 85 2,147,483,647 0.32 0 2.18 2.32 53.52 0 17.1 19.1 28.55
05:51 2 17.7 85 2,147,483,647 0.34 0 2.2 2.99 64.34 0 17.81 19.59 28.01
05:50 2 17.6 85 2,147,483,647 0.33 0 2.2 2.42 59.12 0 17.1 19.1 29.09
05:45 2 17.6 85 2,147,483,647 0.33 0 2.18 3.99 61.53 0 18.53 20.48 30.68
05:40 2 17.5 85 2,147,483,647 0.33 0 2.19 3.01 55.28 0 17.81 18.62 29.06
05:38 2 17.5 85 2,147,483,647 0.33 0 2.2 2.77 58.31 0 16.39 18.62 28.52
05:33 2 17.5 85 2,147,483,647 0.34 0 2.2 3.31 54.44 0 15.68 17.24 23.66
05:29 2 17.4 85 2,147,483,647 0.34 0 2.2 2.6 52.85 0 17.1 18.61 27.96
05:26 2 17.4 85 2,147,483,647 0.33 0 2.2 2.73 58.47 0 15.68 18.14 28.48
05:25 2 17.4 85 2,147,483,647 0.35 0 2.18 3.68 51.11 0 16.39 18.6 27.94
05:24 2 17.4 85 2,147,483,647 0.33 0 2.17 2.25 54.47 0 16.39 17.67 26.87
05:22 2 17.4 85 2,147,483,647 0.33 0 2.19 2.47 55.19 0 14.96 17.21 26.33
05:21 2 17.4 85 2,147,483,647 0.33 0 2.19 3.01 56.66 0 16.39 19.52 29.53